sensor_id;sensor_type;location;lat;lon;timestamp;P1;durP1;ratioP1;P2;durP2;ratioP2
23206;SDS011;11773;52.570;13.052;2023-12-20T00:01:42;0.80;;;0.80;;
23206;SDS011;11773;52.570;13.052;2023-12-20T00:04:12;0.60;;;0.60;;
23206;SDS011;11773;52.570;13.052;2023-12-20T00:06:42;0.83;;;0.83;;
23206;SDS011;11773;52.570;13.052;2023-12-20T00:09:11;0.60;;;0.60;;
23206;SDS011;11773;52.570;13.052;2023-12-20T00:11:41;0.60;;;0.60;;
23206;SDS011;11773;52.570;13.052;2023-12-20T00:14:10;0.73;;;0.73;;
23206;SDS011;11773;52.570;13.052;2023-12-20T00:16:40;1.37;;;0.60;;
23206;SDS011;11773;52.570;13.052;2023-12-20T00:19:10;0.80;;;0.60;;
23206;SDS011;11773;52.570;13.052;2023-12-20T00:21:40;0.77;;;0.77;;
23206;SDS011;11773;52.570;13.052;2023-12-20T00:24:09;0.67;;;0.67;;
23206;SDS011;11773;52.570;13.052;2023-12-20T00:26:39;0.70;;;0.70;;
23206;SDS011;11773;52.570;13.052;2023-12-20T00:29:09;0.70;;;0.70;;
23206;SDS011;11773;52.570;13.052;2023-12-20T00:31:39;0.70;;;0.70;;
23206;SDS011;11773;52.570;13.052;2023-12-20T00:34:08;1.07;;;1.07;;
23206;SDS011;11773;52.570;13.052;2023-12-20T00:36:38;0.80;;;0.80;;
23206;SDS011;11773;52.570;13.052;2023-12-20T00:39:13;0.70;;;0.70;;
23206;SDS011;11773;52.570;13.052;2023-12-20T00:41:43;0.80;;;0.80;;
23206;SDS011;11773;52.570;13.052;2023-12-20T00:44:13;0.50;;;0.50;;
23206;SDS011;11773;52.570;13.052;2023-12-20T00:46:42;0.77;;;0.77;;
23206;SDS011;11773;52.570;13.052;2023-12-20T00:49:12;1.07;;;1.00;;
23206;SDS011;11773;52.570;13.052;2023-12-20T00:51:42;0.80;;;0.80;;
23206;SDS011;11773;52.570;13.052;2023-12-20T00:54:11;0.50;;;0.50;;
23206;SDS011;11773;52.570;13.052;2023-12-20T00:56:41;0.50;;;0.50;;
23206;SDS011;11773;52.570;13.052;2023-12-20T00:59:10;0.70;;;0.70;;
23206;SDS011;11773;52.570;13.052;2023-12-20T01:01:40;0.88;;;0.88;;
23206;SDS011;11773;52.570;13.052;2023-12-20T01:04:10;0.80;;;0.80;;
23206;SDS011;11773;52.570;13.052;2023-12-20T01:06:39;0.70;;;0.70;;
23206;SDS011;11773;52.570;13.052;2023-12-20T01:09:09;0.80;;;0.80;;
23206;SDS011;11773;52.570;13.052;2023-12-20T01:11:38;0.70;;;0.70;;
23206;SDS011;11773;52.570;13.052;2023-12-20T01:14:08;0.90;;;0.90;;
23206;SDS011;11773;52.570;13.052;2023-12-20T01:16:38;0.93;;;0.80;;
23206;SDS011;11773;52.570;13.052;2023-12-20T01:19:07;0.70;;;0.70;;
23206;SDS011;11773;52.570;13.052;2023-12-20T01:21:37;0.70;;;0.70;;
23206;SDS011;11773;52.570;13.052;2023-12-20T01:24:09;0.73;;;0.73;;
23206;SDS011;11773;52.570;13.052;2023-12-20T01:26:39;0.60;;;0.60;;
23206;SDS011;11773;52.570;13.052;2023-12-20T01:29:09;0.73;;;0.73;;
23206;SDS011;11773;52.570;13.052;2023-12-20T01:31:40;0.40;;;0.40;;
23206;SDS011;11773;52.570;13.052;2023-12-20T01:34:10;0.40;;;0.40;;
23206;SDS011;11773;52.570;13.052;2023-12-20T01:36:40;0.43;;;0.43;;
23206;SDS011;11773;52.570;13.052;2023-12-20T01:39:10;0.43;;;0.43;;
23206;SDS011;11773;52.570;13.052;2023-12-20T01:41:41;0.50;;;0.50;;
23206;SDS011;11773;52.570;13.052;2023-12-20T01:44:12;0.37;;;0.37;;
23206;SDS011;11773;52.570;13.052;2023-12-20T01:46:42;0.40;;;0.40;;
23206;SDS011;11773;52.570;13.052;2023-12-20T01:49:11;0.50;;;0.50;;
23206;SDS011;11773;52.570;13.052;2023-12-20T01:51:43;0.33;;;0.33;;
23206;SDS011;11773;52.570;13.052;2023-12-20T01:54:14;0.40;;;0.40;;
23206;SDS011;11773;52.570;13.052;2023-12-20T01:56:43;0.40;;;0.37;;
23206;SDS011;11773;52.570;13.052;2023-12-20T01:59:13;0.30;;;0.30;;
23206;SDS011;11773;52.570;13.052;2023-12-20T02:01:43;0.30;;;0.30;;
23206;SDS011;11773;52.570;13.052;2023-12-20T02:04:13;0.37;;;0.37;;
23206;SDS011;11773;52.570;13.052;2023-12-20T02:06:43;0.40;;;0.40;;
23206;SDS011;11773;52.570;13.052;2023-12-20T02:09:15;0.60;;;0.30;;
23206;SDS011;11773;52.570;13.052;2023-12-20T02:11:44;0.40;;;0.30;;
23206;SDS011;11773;52.570;13.052;2023-12-20T02:14:14;0.40;;;0.40;;
23206;SDS011;11773;52.570;13.052;2023-12-20T02:16:43;0.27;;;0.27;;
23206;SDS011;11773;52.570;13.052;2023-12-20T02:19:13;0.40;;;0.40;;
23206;SDS011;11773;52.570;13.052;2023-12-20T02:21:45;0.35;;;0.35;;
23206;SDS011;11773;52.570;13.052;2023-12-20T02:24:15;0.30;;;0.30;;
23206;SDS011;11773;52.570;13.052;2023-12-20T02:26:44;0.50;;;0.50;;
23206;SDS011;11773;52.570;13.052;2023-12-20T02:29:14;0.50;;;0.50;;
23206;SDS011;11773;52.570;13.052;2023-12-20T02:31:44;0.60;;;0.53;;
23206;SDS011;11773;52.570;13.052;2023-12-20T02:34:13;0.40;;;0.40;;
23206;SDS011;11773;52.570;13.052;2023-12-20T02:36:44;0.50;;;0.50;;
23206;SDS011;11773;52.570;13.052;2023-12-20T02:39:13;0.90;;;0.70;;
23206;SDS011;11773;52.570;13.052;2023-12-20T02:41:44;0.67;;;0.67;;
23206;SDS011;11773;52.570;13.052;2023-12-20T02:44:13;0.40;;;0.40;;
23206;SDS011;11773;52.570;13.052;2023-12-20T02:46:43;0.40;;;0.40;;
23206;SDS011;11773;52.570;13.052;2023-12-20T02:49:12;0.70;;;0.70;;
23206;SDS011;11773;52.570;13.052;2023-12-20T02:51:42;0.93;;;0.50;;
23206;SDS011;11773;52.570;13.052;2023-12-20T02:54:12;0.50;;;0.50;;
23206;SDS011;11773;52.570;13.052;2023-12-20T02:56:41;0.50;;;0.50;;
23206;SDS011;11773;52.570;13.052;2023-12-20T02:59:11;0.33;;;0.33;;
23206;SDS011;11773;52.570;13.052;2023-12-20T03:01:44;0.63;;;0.47;;
23206;SDS011;11773;52.570;13.052;2023-12-20T03:04:14;0.50;;;0.50;;
23206;SDS011;11773;52.570;13.052;2023-12-20T03:06:44;0.63;;;0.63;;
23206;SDS011;11773;52.570;13.052;2023-12-20T03:09:14;0.50;;;0.30;;
23206;SDS011;11773;52.570;13.052;2023-12-20T03:11:44;0.30;;;0.30;;
23206;SDS011;11773;52.570;13.052;2023-12-20T03:14:13;0.40;;;0.40;;
23206;SDS011;11773;52.570;13.052;2023-12-20T03:16:47;0.50;;;0.50;;
23206;SDS011;11773;52.570;13.052;2023-12-20T03:19:20;0.50;;;0.50;;
23206;SDS011;11773;52.570;13.052;2023-12-20T03:21:50;0.40;;;0.40;;
23206;SDS011;11773;52.570;13.052;2023-12-20T03:24:20;0.70;;;0.40;;
23206;SDS011;11773;52.570;13.052;2023-12-20T03:26:50;0.50;;;0.40;;
23206;SDS011;11773;52.570;13.052;2023-12-20T03:29:20;1.03;;;0.43;;
23206;SDS011;11773;52.570;13.052;2023-12-20T03:31:49;0.60;;;0.47;;
23206;SDS011;11773;52.570;13.052;2023-12-20T03:34:19;0.47;;;0.47;;
23206;SDS011;11773;52.570;13.052;2023-12-20T03:36:49;0.40;;;0.40;;
23206;SDS011;11773;52.570;13.052;2023-12-20T03:39:18;1.27;;;0.40;;
23206;SDS011;11773;52.570;13.052;2023-12-20T03:41:48;0.37;;;0.37;;
23206;SDS011;11773;52.570;13.052;2023-12-20T03:44:17;0.93;;;0.40;;
23206;SDS011;11773;52.570;13.052;2023-12-20T03:46:47;1.07;;;0.53;;
23206;SDS011;11773;52.570;13.052;2023-12-20T03:49:17;0.40;;;0.40;;
23206;SDS011;11773;52.570;13.052;2023-12-20T03:51:46;0.30;;;0.30;;
23206;SDS011;11773;52.570;13.052;2023-12-20T03:54:16;0.20;;;0.20;;
23206;SDS011;11773;52.570;13.052;2023-12-20T03:56:45;0.57;;;0.50;;
23206;SDS011;11773;52.570;13.052;2023-12-20T03:59:15;0.90;;;0.43;;
23206;SDS011;11773;52.570;13.052;2023-12-20T04:01:46;0.63;;;0.40;;
23206;SDS011;11773;52.570;13.052;2023-12-20T04:04:16;0.30;;;0.30;;
23206;SDS011;11773;52.570;13.052;2023-12-20T04:06:46;0.30;;;0.30;;
23206;SDS011;11773;52.570;13.052;2023-12-20T04:09:16;0.90;;;0.33;;
23206;SDS011;11773;52.570;13.052;2023-12-20T04:11:46;0.30;;;0.30;;
23206;SDS011;11773;52.570;13.052;2023-12-20T04:14:15;2.07;;;0.30;;
23206;SDS011;11773;52.570;13.052;2023-12-20T04:16:45;0.30;;;0.20;;
23206;SDS011;11773;52.570;13.052;2023-12-20T04:19:14;0.50;;;0.30;;
23206;SDS011;11773;52.570;13.052;2023-12-20T04:21:44;0.70;;;0.40;;
23206;SDS011;11773;52.570;13.052;2023-12-20T04:24:14;0.63;;;0.30;;
23206;SDS011;11773;52.570;13.052;2023-12-20T04:26:43;0.40;;;0.37;;
23206;SDS011;11773;52.570;13.052;2023-12-20T04:29:14;0.97;;;0.30;;
23206;SDS011;11773;52.570;13.052;2023-12-20T04:31:43;0.40;;;0.30;;
23206;SDS011;11773;52.570;13.052;2023-12-20T04:34:13;0.30;;;0.30;;
23206;SDS011;11773;52.570;13.052;2023-12-20T04:36:43;0.20;;;0.20;;
23206;SDS011;11773;52.570;13.052;2023-12-20T04:39:13;0.43;;;0.20;;
23206;SDS011;11773;52.570;13.052;2023-12-20T04:41:43;0.77;;;0.50;;
23206;SDS011;11773;52.570;13.052;2023-12-20T04:44:14;0.20;;;0.20;;
23206;SDS011;11773;52.570;13.052;2023-12-20T04:46:44;0.23;;;0.23;;
23206;SDS011;11773;52.570;13.052;2023-12-20T04:49:13;0.87;;;0.60;;
23206;SDS011;11773;52.570;13.052;2023-12-20T04:51:43;0.73;;;0.50;;
23206;SDS011;11773;52.570;13.052;2023-12-20T04:54:13;0.63;;;0.50;;
23206;SDS011;11773;52.570;13.052;2023-12-20T04:56:42;0.30;;;0.30;;
23206;SDS011;11773;52.570;13.052;2023-12-20T04:59:12;0.63;;;0.40;;
23206;SDS011;11773;52.570;13.052;2023-12-20T05:01:42;1.60;;;0.40;;
23206;SDS011;11773;52.570;13.052;2023-12-20T05:04:11;0.30;;;0.30;;
23206;SDS011;11773;52.570;13.052;2023-12-20T05:06:41;0.37;;;0.30;;
23206;SDS011;11773;52.570;13.052;2023-12-20T05:09:11;0.80;;;0.63;;
23206;SDS011;11773;52.570;13.052;2023-12-20T05:11:40;0.40;;;0.40;;
23206;SDS011;11773;52.570;13.052;2023-12-20T05:14:10;0.77;;;0.33;;
23206;SDS011;11773;52.570;13.052;2023-12-20T05:16:39;0.83;;;0.50;;
23206;SDS011;11773;52.570;13.052;2023-12-20T05:19:09;0.40;;;0.20;;
23206;SDS011;11773;52.570;13.052;2023-12-20T05:21:38;0.20;;;0.20;;
23206;SDS011;11773;52.570;13.052;2023-12-20T05:24:08;0.73;;;0.40;;
23206;SDS011;11773;52.570;13.052;2023-12-20T05:26:38;0.37;;;0.37;;
23206;SDS011;11773;52.570;13.052;2023-12-20T05:29:08;0.87;;;0.23;;
23206;SDS011;11773;52.570;13.052;2023-12-20T05:31:37;0.53;;;0.30;;
23206;SDS011;11773;52.570;13.052;2023-12-20T05:34:07;1.53;;;0.70;;
23206;SDS011;11773;52.570;13.052;2023-12-20T05:36:37;0.20;;;0.20;;
23206;SDS011;11773;52.570;13.052;2023-12-20T05:39:06;0.30;;;0.30;;
23206;SDS011;11773;52.570;13.052;2023-12-20T05:41:36;0.50;;;0.40;;
23206;SDS011;11773;52.570;13.052;2023-12-20T05:44:06;0.87;;;0.37;;
23206;SDS011;11773;52.570;13.052;2023-12-20T05:46:37;0.63;;;0.50;;
23206;SDS011;11773;52.570;13.052;2023-12-20T05:49:07;1.70;;;0.63;;
23206;SDS011;11773;52.570;13.052;2023-12-20T05:51:37;1.40;;;0.50;;
23206;SDS011;11773;52.570;13.052;2023-12-20T05:54:07;0.37;;;0.30;;
23206;SDS011;11773;52.570;13.052;2023-12-20T05:56:38;0.40;;;0.40;;
23206;SDS011;11773;52.570;13.052;2023-12-20T05:59:08;0.30;;;0.30;;
23206;SDS011;11773;52.570;13.052;2023-12-20T06:01:37;0.60;;;0.20;;
23206;SDS011;11773;52.570;13.052;2023-12-20T06:04:07;0.50;;;0.20;;
23206;SDS011;11773;52.570;13.052;2023-12-20T06:06:40;0.23;;;0.23;;
23206;SDS011;11773;52.570;13.052;2023-12-20T06:09:11;0.27;;;0.27;;
23206;SDS011;11773;52.570;13.052;2023-12-20T06:11:42;0.20;;;0.20;;
23206;SDS011;11773;52.570;13.052;2023-12-20T06:14:11;0.70;;;0.37;;
23206;SDS011;11773;52.570;13.052;2023-12-20T06:16:41;0.30;;;0.30;;
23206;SDS011;11773;52.570;13.052;2023-12-20T06:19:12;2.33;;;0.77;;
23206;SDS011;11773;52.570;13.052;2023-12-20T06:21:42;0.40;;;0.40;;
23206;SDS011;11773;52.570;13.052;2023-12-20T06:24:11;0.53;;;0.20;;
23206;SDS011;11773;52.570;13.052;2023-12-20T06:26:41;1.40;;;0.50;;
23206;SDS011;11773;52.570;13.052;2023-12-20T06:29:11;0.83;;;0.60;;
23206;SDS011;11773;52.570;13.052;2023-12-20T06:31:41;0.57;;;0.33;;
23206;SDS011;11773;52.570;13.052;2023-12-20T06:34:11;0.40;;;0.40;;
23206;SDS011;11773;52.570;13.052;2023-12-20T06:36:40;0.33;;;0.33;;
23206;SDS011;11773;52.570;13.052;2023-12-20T06:39:10;0.77;;;0.50;;
23206;SDS011;11773;52.570;13.052;2023-12-20T06:41:40;1.17;;;0.40;;
23206;SDS011;11773;52.570;13.052;2023-12-20T06:44:10;0.97;;;0.33;;
23206;SDS011;11773;52.570;13.052;2023-12-20T06:46:40;0.20;;;0.20;;
23206;SDS011;11773;52.570;13.052;2023-12-20T06:49:09;0.27;;;0.20;;
23206;SDS011;11773;52.570;13.052;2023-12-20T06:51:39;0.33;;;0.30;;
23206;SDS011;11773;52.570;13.052;2023-12-20T06:54:09;1.03;;;0.50;;
23206;SDS011;11773;52.570;13.052;2023-12-20T06:56:38;1.17;;;0.73;;
23206;SDS011;11773;52.570;13.052;2023-12-20T06:59:08;0.60;;;0.43;;
23206;SDS011;11773;52.570;13.052;2023-12-20T07:01:37;1.20;;;0.50;;
23206;SDS011;11773;52.570;13.052;2023-12-20T07:04:08;0.90;;;0.60;;
23206;SDS011;11773;52.570;13.052;2023-12-20T07:06:38;1.13;;;0.60;;
23206;SDS011;11773;52.570;13.052;2023-12-20T07:09:07;0.93;;;0.60;;
23206;SDS011;11773;52.570;13.052;2023-12-20T07:11:37;1.10;;;0.40;;
23206;SDS011;11773;52.570;13.052;2023-12-20T07:14:07;3.13;;;0.67;;
23206;SDS011;11773;52.570;13.052;2023-12-20T07:16:37;0.50;;;0.40;;
23206;SDS011;11773;52.570;13.052;2023-12-20T07:19:07;0.47;;;0.30;;
23206;SDS011;11773;52.570;13.052;2023-12-20T07:21:37;1.50;;;0.50;;
23206;SDS011;11773;52.570;13.052;2023-12-20T07:24:06;0.63;;;0.50;;
23206;SDS011;11773;52.570;13.052;2023-12-20T07:26:36;0.93;;;0.70;;
23206;SDS011;11773;52.570;13.052;2023-12-20T07:29:06;0.47;;;0.40;;
23206;SDS011;11773;52.570;13.052;2023-12-20T07:31:36;1.43;;;0.83;;
23206;SDS011;11773;52.570;13.052;2023-12-20T07:34:05;0.63;;;0.60;;
23206;SDS011;11773;52.570;13.052;2023-12-20T07:36:35;1.60;;;0.70;;
23206;SDS011;11773;52.570;13.052;2023-12-20T07:39:05;1.27;;;0.70;;
23206;SDS011;11773;52.570;13.052;2023-12-20T07:41:34;1.17;;;0.73;;
23206;SDS011;11773;52.570;13.052;2023-12-20T07:44:04;0.37;;;0.37;;
23206;SDS011;11773;52.570;13.052;2023-12-20T07:46:35;0.80;;;0.67;;
23206;SDS011;11773;52.570;13.052;2023-12-20T07:49:05;0.93;;;0.67;;
23206;SDS011;11773;52.570;13.052;2023-12-20T07:51:36;1.97;;;1.00;;
23206;SDS011;11773;52.570;13.052;2023-12-20T07:54:05;1.97;;;0.80;;
23206;SDS011;11773;52.570;13.052;2023-12-20T07:56:35;1.83;;;1.03;;
23206;SDS011;11773;52.570;13.052;2023-12-20T07:59:06;1.00;;;0.73;;
23206;SDS011;11773;52.570;13.052;2023-12-20T08:01:38;1.73;;;0.60;;
23206;SDS011;11773;52.570;13.052;2023-12-20T08:04:08;0.80;;;0.60;;
23206;SDS011;11773;52.570;13.052;2023-12-20T08:06:37;0.47;;;0.47;;
23206;SDS011;11773;52.570;13.052;2023-12-20T08:09:07;1.90;;;0.77;;
23206;SDS011;11773;52.570;13.052;2023-12-20T08:11:37;0.40;;;0.40;;
23206;SDS011;11773;52.570;13.052;2023-12-20T08:14:07;1.23;;;0.80;;
23206;SDS011;11773;52.570;13.052;2023-12-20T08:16:36;0.77;;;0.60;;
23206;SDS011;11773;52.570;13.052;2023-12-20T08:19:06;1.43;;;0.80;;
23206;SDS011;11773;52.570;13.052;2023-12-20T08:21:36;0.70;;;0.60;;
23206;SDS011;11773;52.570;13.052;2023-12-20T08:24:06;1.67;;;0.80;;
23206;SDS011;11773;52.570;13.052;2023-12-20T08:26:36;1.03;;;0.60;;
23206;SDS011;11773;52.570;13.052;2023-12-20T08:29:05;0.80;;;0.50;;
23206;SDS011;11773;52.570;13.052;2023-12-20T08:31:35;1.13;;;0.63;;
23206;SDS011;11773;52.570;13.052;2023-12-20T08:34:04;1.13;;;0.60;;
23206;SDS011;11773;52.570;13.052;2023-12-20T08:36:35;1.07;;;0.73;;
23206;SDS011;11773;52.570;13.052;2023-12-20T08:39:05;2.13;;;0.60;;
23206;SDS011;11773;52.570;13.052;2023-12-20T08:41:35;1.20;;;0.60;;
23206;SDS011;11773;52.570;13.052;2023-12-20T08:44:04;0.77;;;0.53;;
23206;SDS011;11773;52.570;13.052;2023-12-20T08:46:34;1.20;;;0.53;;
23206;SDS011;11773;52.570;13.052;2023-12-20T08:49:04;1.60;;;0.70;;
23206;SDS011;11773;52.570;13.052;2023-12-20T08:51:35;1.23;;;0.97;;
23206;SDS011;11773;52.570;13.052;2023-12-20T08:54:07;2.00;;;0.80;;
23206;SDS011;11773;52.570;13.052;2023-12-20T08:56:37;1.40;;;1.00;;
23206;SDS011;11773;52.570;13.052;2023-12-20T08:59:06;1.10;;;0.57;;
23206;SDS011;11773;52.570;13.052;2023-12-20T09:01:36;1.17;;;0.70;;
23206;SDS011;11773;52.570;13.052;2023-12-20T09:04:06;1.77;;;0.70;;
23206;SDS011;11773;52.570;13.052;2023-12-20T09:06:36;1.93;;;1.00;;
23206;SDS011;11773;52.570;13.052;2023-12-20T09:09:05;1.30;;;0.80;;
23206;SDS011;11773;52.570;13.052;2023-12-20T09:11:37;1.13;;;0.70;;
23206;SDS011;11773;52.570;13.052;2023-12-20T09:14:09;1.57;;;0.77;;
23206;SDS011;11773;52.570;13.052;2023-12-20T09:16:38;1.60;;;0.63;;
23206;SDS011;11773;52.570;13.052;2023-12-20T09:19:08;2.30;;;0.80;;
23206;SDS011;11773;52.570;13.052;2023-12-20T09:21:38;1.60;;;0.80;;
23206;SDS011;11773;52.570;13.052;2023-12-20T09:24:08;0.70;;;0.60;;
23206;SDS011;11773;52.570;13.052;2023-12-20T09:26:38;1.33;;;0.93;;
23206;SDS011;11773;52.570;13.052;2023-12-20T09:29:08;0.50;;;0.50;;
23206;SDS011;11773;52.570;13.052;2023-12-20T09:31:39;1.30;;;0.80;;
23206;SDS011;11773;52.570;13.052;2023-12-20T09:34:11;1.37;;;0.60;;
23206;SDS011;11773;52.570;13.052;2023-12-20T09:36:42;2.53;;;0.87;;
23206;SDS011;11773;52.570;13.052;2023-12-20T09:39:14;1.43;;;1.07;;
23206;SDS011;11773;52.570;13.052;2023-12-20T09:42:00;1.20;;;0.70;;
23206;SDS011;11773;52.570;13.052;2023-12-20T09:44:34;1.47;;;1.10;;
23206;SDS011;11773;52.570;13.052;2023-12-20T09:47:04;1.90;;;0.90;;
23206;SDS011;11773;52.570;13.052;2023-12-20T09:49:34;0.50;;;0.50;;
23206;SDS011;11773;52.570;13.052;2023-12-20T09:52:05;1.43;;;0.60;;
23206;SDS011;11773;52.570;13.052;2023-12-20T09:54:39;0.93;;;0.60;;
23206;SDS011;11773;52.570;13.052;2023-12-20T09:57:09;0.87;;;0.57;;
23206;SDS011;11773;52.570;13.052;2023-12-20T09:59:38;2.50;;;0.80;;
23206;SDS011;11773;52.570;13.052;2023-12-20T10:02:11;1.60;;;0.80;;
23206;SDS011;11773;52.570;13.052;2023-12-20T10:04:46;1.90;;;0.83;;
23206;SDS011;11773;52.570;13.052;2023-12-20T10:07:16;1.87;;;0.80;;
23206;SDS011;11773;52.570;13.052;2023-12-20T10:09:48;1.47;;;0.60;;
23206;SDS011;11773;52.570;13.052;2023-12-20T10:12:20;1.20;;;0.60;;
23206;SDS011;11773;52.570;13.052;2023-12-20T10:14:50;2.20;;;1.00;;
23206;SDS011;11773;52.570;13.052;2023-12-20T10:17:19;0.63;;;0.53;;
23206;SDS011;11773;52.570;13.052;2023-12-20T10:19:51;1.10;;;0.70;;
23206;SDS011;11773;52.570;13.052;2023-12-20T10:22:21;1.10;;;0.60;;
23206;SDS011;11773;52.570;13.052;2023-12-20T10:24:51;2.60;;;1.00;;
23206;SDS011;11773;52.570;13.052;2023-12-20T10:27:21;1.80;;;1.10;;
23206;SDS011;11773;52.570;13.052;2023-12-20T10:29:50;1.80;;;0.90;;
23206;SDS011;11773;52.570;13.052;2023-12-20T10:34:55;2.20;;;0.90;;
23206;SDS011;11773;52.570;13.052;2023-12-20T10:37:26;1.03;;;0.77;;
23206;SDS011;11773;52.570;13.052;2023-12-20T10:39:56;1.67;;;0.70;;
23206;SDS011;11773;52.570;13.052;2023-12-20T10:42:30;1.47;;;0.73;;
23206;SDS011;11773;52.570;13.052;2023-12-20T10:45:00;1.13;;;0.40;;
23206;SDS011;11773;52.570;13.052;2023-12-20T10:47:31;1.77;;;0.90;;
23206;SDS011;11773;52.570;13.052;2023-12-20T10:50:05;1.90;;;0.90;;
23206;SDS011;11773;52.570;13.052;2023-12-20T10:52:37;2.23;;;0.80;;
23206;SDS011;11773;52.570;13.052;2023-12-20T10:55:08;1.53;;;0.97;;
23206;SDS011;11773;52.570;13.052;2023-12-20T10:57:38;2.53;;;1.00;;
23206;SDS011;11773;52.570;13.052;2023-12-20T11:00:10;2.77;;;1.10;;
23206;SDS011;11773;52.570;13.052;2023-12-20T11:02:43;2.33;;;1.00;;
23206;SDS011;11773;52.570;13.052;2023-12-20T11:05:26;2.40;;;0.87;;
23206;SDS011;11773;52.570;13.052;2023-12-20T11:08:09;1.47;;;0.80;;
23206;SDS011;11773;52.570;13.052;2023-12-20T11:11:04;1.80;;;1.13;;
23206;SDS011;11773;52.570;13.052;2023-12-20T11:14:08;3.20;;;1.30;;
23206;SDS011;11773;52.570;13.052;2023-12-20T11:16:50;2.17;;;1.03;;
23206;SDS011;11773;52.570;13.052;2023-12-20T11:19:43;1.60;;;0.67;;
23206;SDS011;11773;52.570;13.052;2023-12-20T11:22:32;1.30;;;1.00;;
23206;SDS011;11773;52.570;13.052;2023-12-20T11:27:37;1.40;;;0.67;;
23206;SDS011;11773;52.570;13.052;2023-12-20T11:30:12;1.47;;;0.90;;
23206;SDS011;11773;52.570;13.052;2023-12-20T11:32:45;2.10;;;0.80;;
23206;SDS011;11773;52.570;13.052;2023-12-20T11:37:47;1.50;;;0.60;;
23206;SDS011;11773;52.570;13.052;2023-12-20T11:40:17;1.77;;;0.80;;
23206;SDS011;11773;52.570;13.052;2023-12-20T11:42:49;2.00;;;1.00;;
23206;SDS011;11773;52.570;13.052;2023-12-20T11:45:21;1.47;;;1.10;;
23206;SDS011;11773;52.570;13.052;2023-12-20T11:47:56;1.80;;;1.10;;
23206;SDS011;11773;52.570;13.052;2023-12-20T11:50:26;1.60;;;0.90;;
23206;SDS011;11773;52.570;13.052;2023-12-20T11:52:57;2.90;;;1.20;;
23206;SDS011;11773;52.570;13.052;2023-12-20T11:55:27;1.30;;;0.87;;
23206;SDS011;11773;52.570;13.052;2023-12-20T11:57:57;2.73;;;0.93;;
23206;SDS011;11773;52.570;13.052;2023-12-20T12:00:26;1.47;;;1.10;;
23206;SDS011;11773;52.570;13.052;2023-12-20T12:02:57;1.30;;;1.00;;
23206;SDS011;11773;52.570;13.052;2023-12-20T12:05:30;1.10;;;1.00;;
23206;SDS011;11773;52.570;13.052;2023-12-20T12:08:01;1.87;;;1.20;;
23206;SDS011;11773;52.570;13.052;2023-12-20T12:10:32;1.60;;;0.97;;
23206;SDS011;11773;52.570;13.052;2023-12-20T12:13:02;1.47;;;0.90;;
23206;SDS011;11773;52.570;13.052;2023-12-20T12:15:32;2.17;;;1.10;;
23206;SDS011;11773;52.570;13.052;2023-12-20T12:18:02;2.70;;;1.33;;
23206;SDS011;11773;52.570;13.052;2023-12-20T12:20:32;1.93;;;1.00;;
23206;SDS011;11773;52.570;13.052;2023-12-20T12:23:04;2.13;;;1.00;;
23206;SDS011;11773;52.570;13.052;2023-12-20T12:25:35;1.40;;;1.00;;
23206;SDS011;11773;52.570;13.052;2023-12-20T12:28:06;1.97;;;1.03;;
23206;SDS011;11773;52.570;13.052;2023-12-20T12:30:36;1.70;;;1.03;;
23206;SDS011;11773;52.570;13.052;2023-12-20T12:33:07;3.43;;;1.30;;
23206;SDS011;11773;52.570;13.052;2023-12-20T12:35:37;1.73;;;1.03;;
23206;SDS011;11773;52.570;13.052;2023-12-20T12:38:08;1.20;;;0.93;;
23206;SDS011;11773;52.570;13.052;2023-12-20T12:40:39;0.90;;;0.60;;
23206;SDS011;11773;52.570;13.052;2023-12-20T12:43:10;1.90;;;1.00;;
23206;SDS011;11773;52.570;13.052;2023-12-20T12:45:40;1.63;;;1.17;;
23206;SDS011;11773;52.570;13.052;2023-12-20T12:48:10;2.53;;;1.40;;
23206;SDS011;11773;52.570;13.052;2023-12-20T12:50:40;3.23;;;1.50;;
23206;SDS011;11773;52.570;13.052;2023-12-20T12:53:10;3.10;;;1.27;;
23206;SDS011;11773;52.570;13.052;2023-12-20T12:55:40;2.47;;;1.57;;
23206;SDS011;11773;52.570;13.052;2023-12-20T12:58:09;1.83;;;1.03;;
23206;SDS011;11773;52.570;13.052;2023-12-20T13:00:39;1.70;;;1.10;;
23206;SDS011;11773;52.570;13.052;2023-12-20T13:03:09;2.00;;;1.00;;
23206;SDS011;11773;52.570;13.052;2023-12-20T13:05:39;1.60;;;1.37;;
23206;SDS011;11773;52.570;13.052;2023-12-20T13:08:10;1.50;;;1.23;;
23206;SDS011;11773;52.570;13.052;2023-12-20T13:10:40;1.60;;;1.20;;
23206;SDS011;11773;52.570;13.052;2023-12-20T13:13:10;2.30;;;1.47;;
23206;SDS011;11773;52.570;13.052;2023-12-20T13:15:40;1.87;;;1.10;;
23206;SDS011;11773;52.570;13.052;2023-12-20T13:18:09;1.23;;;1.10;;
23206;SDS011;11773;52.570;13.052;2023-12-20T13:20:39;1.90;;;1.03;;
23206;SDS011;11773;52.570;13.052;2023-12-20T13:23:08;1.33;;;0.80;;
23206;SDS011;11773;52.570;13.052;2023-12-20T13:25:38;0.83;;;0.50;;
23206;SDS011;11773;52.570;13.052;2023-12-20T13:28:09;0.93;;;0.50;;
23206;SDS011;11773;52.570;13.052;2023-12-20T13:30:39;0.50;;;0.50;;
23206;SDS011;11773;52.570;13.052;2023-12-20T13:33:09;0.57;;;0.50;;
23206;SDS011;11773;52.570;13.052;2023-12-20T13:35:40;0.70;;;0.43;;
23206;SDS011;11773;52.570;13.052;2023-12-20T13:38:10;0.70;;;0.37;;
23206;SDS011;11773;52.570;13.052;2023-12-20T13:40:41;0.67;;;0.40;;
23206;SDS011;11773;52.570;13.052;2023-12-20T13:43:11;0.40;;;0.40;;
23206;SDS011;11773;52.570;13.052;2023-12-20T13:45:41;0.40;;;0.40;;
23206;SDS011;11773;52.570;13.052;2023-12-20T13:48:11;0.47;;;0.47;;
23206;SDS011;11773;52.570;13.052;2023-12-20T13:50:40;0.97;;;0.60;;
23206;SDS011;11773;52.570;13.052;2023-12-20T13:53:10;0.50;;;0.33;;
23206;SDS011;11773;52.570;13.052;2023-12-20T13:55:41;0.80;;;0.33;;
23206;SDS011;11773;52.570;13.052;2023-12-20T13:58:10;0.80;;;0.37;;
23206;SDS011;11773;52.570;13.052;2023-12-20T14:00:40;0.43;;;0.43;;
23206;SDS011;11773;52.570;13.052;2023-12-20T14:03:10;0.70;;;0.40;;
23206;SDS011;11773;52.570;13.052;2023-12-20T14:05:39;0.30;;;0.30;;
23206;SDS011;11773;52.570;13.052;2023-12-20T14:08:09;0.40;;;0.40;;
23206;SDS011;11773;52.570;13.052;2023-12-20T14:10:38;0.53;;;0.50;;
23206;SDS011;11773;52.570;13.052;2023-12-20T14:13:08;0.30;;;0.30;;
23206;SDS011;11773;52.570;13.052;2023-12-20T14:15:38;0.27;;;0.27;;
23206;SDS011;11773;52.570;13.052;2023-12-20T14:18:07;0.40;;;0.40;;
23206;SDS011;11773;52.570;13.052;2023-12-20T14:20:37;0.33;;;0.30;;
23206;SDS011;11773;52.570;13.052;2023-12-20T14:23:06;0.33;;;0.33;;
23206;SDS011;11773;52.570;13.052;2023-12-20T14:25:41;0.40;;;0.40;;
23206;SDS011;11773;52.570;13.052;2023-12-20T14:28:13;0.50;;;0.50;;
23206;SDS011;11773;52.570;13.052;2023-12-20T14:30:42;0.30;;;0.30;;
23206;SDS011;11773;52.570;13.052;2023-12-20T14:33:12;0.57;;;0.57;;
23206;SDS011;11773;52.570;13.052;2023-12-20T14:35:41;0.90;;;0.40;;
23206;SDS011;11773;52.570;13.052;2023-12-20T14:38:12;0.30;;;0.30;;
23206;SDS011;11773;52.570;13.052;2023-12-20T14:40:42;0.30;;;0.30;;
23206;SDS011;11773;52.570;13.052;2023-12-20T14:43:11;0.43;;;0.30;;
23206;SDS011;11773;52.570;13.052;2023-12-20T14:45:41;0.40;;;0.40;;
23206;SDS011;11773;52.570;13.052;2023-12-20T14:48:11;0.27;;;0.20;;
23206;SDS011;11773;52.570;13.052;2023-12-20T14:50:40;0.63;;;0.30;;
23206;SDS011;11773;52.570;13.052;2023-12-20T14:53:10;0.43;;;0.40;;
23206;SDS011;11773;52.570;13.052;2023-12-20T14:55:39;0.80;;;0.50;;
23206;SDS011;11773;52.570;13.052;2023-12-20T14:58:09;1.03;;;0.40;;
23206;SDS011;11773;52.570;13.052;2023-12-20T15:00:39;0.50;;;0.50;;